Time;durP1;ratioP1;P1;durP2;ratioP2;P2;SDS_P1;SDS_P2;PMS_P1;PMS_P2;Temp;Humidity;BMP_temperature;BMP_pressure;BME280_temperature;BME280_humidity;BME280_pressure;Samples;Min_cycle;Max_cycle;Signal;HPM_P1;HPM_P2
2022/09/13 00:02:23;;;;;;;3.00;2.80;;;;;;;11.56;100.00;96134.28;5013654;28;102314;-63
2022/09/13 00:04:50;;;;;;;3.47;3.00;;;;;;;11.57;100.00;96130.56;5012865;28;102713;-62
2022/09/13 00:10:43;;;;;;;3.37;3.07;;;;;;;11.42;100.00;96114.53;5012945;28;103096;-62
2022/09/13 00:13:12;;;;;;;3.73;3.43;;;;;;;11.48;100.00;96113.47;5013277;28;101800;-62
2022/09/13 00:15:43;;;;;;;4.27;3.20;;;;;;;11.49;100.00;96115.88;5013402;28;102357;-62
2022/09/13 00:18:10;;;;;;;3.50;3.20;;;;;;;11.54;100.00;96112.44;5012822;28;102680;-62
2022/09/13 00:20:41;;;;;;;5.70;3.47;;;;;;;11.55;100.00;96108.72;5013076;28;101870;-62
2022/09/13 00:23:08;;;;;;;3.13;2.83;;;;;;;11.44;100.00;96099.91;5013264;28;102368;-62
2022/09/13 00:25:36;;;;;;;3.97;3.30;;;;;;;11.47;100.00;96102.06;5011193;28;105725;-62
2022/09/13 00:28:05;;;;;;;5.20;3.50;;;;;;;11.33;100.00;96105.47;5012984;28;102187;-62
2022/09/13 00:30:33;;;;;;;3.23;3.03;;;;;;;11.36;100.00;96099.59;5015788;28;102335;-62
2022/09/13 00:33:03;;;;;;;3.30;3.00;;;;;;;11.31;100.00;96097.75;5012968;28;102000;-62
2022/09/13 00:35:30;;;;;;;3.50;3.20;;;;;;;11.38;100.00;96092.16;5011552;28;105522;-62
2022/09/13 00:37:59;;;;;;;2.77;2.57;;;;;;;11.25;100.00;96097.97;5011072;28;106443;-62
2022/09/13 00:40:27;;;;;;;4.47;3.30;;;;;;;11.29;100.00;96089.19;5011354;28;102006;-62
2022/09/13 00:42:54;;;;;;;3.70;3.30;;;;;;;11.34;100.00;96086.56;5011748;28;105662;-62
2022/09/13 00:45:22;;;;;;;4.00;3.50;;;;;;;11.37;100.00;96090.56;5010885;28;105792;-62
2022/09/13 00:47:56;;;;;;;3.50;3.30;;;;;;;11.28;100.00;96081.50;5011560;28;101933;-62
2022/09/13 00:50:30;;;;;;;3.37;3.07;;;;;;;11.33;100.00;96078.84;5010972;28;104561;-62
2022/09/13 00:53:02;;;;;;;4.10;3.47;;;;;;;11.27;100.00;96077.22;5015646;28;101994;-62
2022/09/13 00:55:35;;;;;;;3.43;3.23;;;;;;;11.15;100.00;96072.13;5011425;28;105523;-62
2022/09/13 00:58:06;;;;;;;3.00;2.80;;;;;;;10.91;100.00;96067.50;5012283;28;102827;-62
2022/09/13 01:00:37;;;;;;;3.10;2.90;;;;;;;10.96;100.00;96065.66;5011321;28;101919;-62
2022/09/13 01:03:06;;;;;;;3.10;2.90;;;;;;;10.94;100.00;96061.66;5011197;28;106468;-62
2022/09/13 01:05:38;;;;;;;3.17;2.93;;;;;;;11.00;100.00;96047.31;5010462;28;105426;-62
2022/09/13 01:08:11;;;;;;;3.50;3.20;;;;;;;10.84;100.00;96059.75;5010230;28;101839;-62
2022/09/13 01:10:40;;;;;;;3.33;3.03;;;;;;;10.73;100.00;96062.63;5012731;28;102195;-62
2022/09/13 01:13:13;;;;;;;3.20;3.00;;;;;;;10.83;100.00;96052.03;5014981;28;101732;-62
2022/09/13 01:15:43;;;;;;;2.83;2.63;;;;;;;10.83;100.00;96052.84;5011185;28;105470;-62
2022/09/13 01:18:11;;;;;;;3.40;3.13;;;;;;;10.73;100.00;96052.81;5011763;28;102629;-62
2022/09/13 01:21:20;;;;;;;3.50;3.30;;;;;;;10.79;100.00;96053.63;5010991;28;101880;-62
2022/09/13 01:24:15;;;;;;;2.90;2.70;;;;;;;10.77;100.00;96053.06;5002635;28;105090;-62
2022/09/13 01:27:07;;;;;;;3.40;3.20;;;;;;;10.73;100.00;96051.97;5010363;28;106377;-62
2022/09/13 01:29:47;;;;;;;3.67;3.30;;;;;;;10.77;100.00;96047.75;5012357;28;101713;-62
2022/09/13 01:32:24;;;;;;;4.57;3.40;;;;;;;10.59;100.00;96050.88;5010701;28;105592;-62
2022/09/13 01:35:03;;;;;;;5.07;3.20;;;;;;;10.62;100.00;96048.50;5011702;28;102515;-62
2022/09/13 01:41:05;;;;;;;3.87;3.37;;;;;;;10.68;100.00;96039.47;5010102;28;105470;-62
2022/09/13 01:43:42;;;;;;;3.50;3.20;;;;;;;10.70;100.00;96033.91;5012335;28;101781;-62
2022/09/13 01:46:15;;;;;;;2.93;2.73;;;;;;;10.69;100.00;96034.97;5011987;28;102384;-62
2022/09/13 01:48:55;;;;;;;3.60;3.30;;;;;;;10.69;100.00;96027.00;5010884;28;102602;-62
2022/09/13 01:51:29;;;;;;;3.40;3.07;;;;;;;10.67;100.00;96021.94;5010516;28;101894;-62
2022/09/13 01:54:11;;;;;;;3.53;3.23;;;;;;;10.61;100.00;96022.97;5010582;28;105416;-62
2022/09/13 01:56:43;;;;;;;3.37;3.13;;;;;;;10.58;100.00;96022.69;5011448;28;102732;-62
2022/09/13 01:59:16;;;;;;;3.77;3.40;;;;;;;10.40;100.00;96023.09;5010435;28;101919;-62
2022/09/13 02:01:49;;;;;;;4.43;3.70;;;;;;;10.47;100.00;96011.19;5014549;28;102865;-62
2022/09/13 02:04:22;;;;;;;3.63;3.30;;;;;;;10.36;100.00;96011.41;5011600;28;101911;-62
2022/09/13 02:07:29;;;;;;;3.50;3.30;;;;;;;10.29;100.00;96024.09;5011854;28;102349;-62
2022/09/13 02:10:02;;;;;;;3.10;2.83;;;;;;;10.33;100.00;96023.34;5011103;28;102586;-62
2022/09/13 02:12:33;;;;;;;3.60;3.33;;;;;;;10.28;100.00;96025.97;5011366;28;101949;-62
2022/09/13 02:15:08;;;;;;;3.70;3.40;;;;;;;10.37;100.00;96023.63;5011649;28;101697;-62
2022/09/13 02:17:49;;;;;;;3.50;3.20;;;;;;;10.40;100.00;96023.91;5010897;28;102702;-62
2022/09/13 02:20:24;;;;;;;3.33;3.07;;;;;;;10.41;100.00;96028.16;5009794;28;101921;-62
2022/09/13 02:22:54;;;;;;;3.93;3.17;;;;;;;10.41;100.00;96024.72;5011494;28;102184;-62
2022/09/13 02:25:25;;;;;;;3.50;3.20;;;;;;;10.43;100.00;96019.94;5014437;28;102591;-62
2022/09/13 02:27:57;;;;;;;3.70;3.40;;;;;;;10.47;100.00;96026.34;5011424;28;102384;-62
2022/09/13 02:30:25;;;;;;;3.60;3.10;;;;;;;10.42;100.00;96023.66;5010841;28;102532;-62
2022/09/13 02:32:58;;;;;;;3.50;3.20;;;;;;;10.49;100.00;96032.19;5011125;28;101852;-62
2022/09/13 02:35:31;;;;;;;3.37;3.13;;;;;;;10.44;100.00;96032.16;5011322;28;102305;-62
2022/09/13 02:38:02;;;;;;;3.73;3.30;;;;;;;10.43;100.00;96027.91;5010656;28;101971;-62
2022/09/13 02:40:35;;;;;;;3.47;3.17;;;;;;;10.35;100.00;96026.53;5009840;28;101803;-62
2022/09/13 02:43:07;;;;;;;3.63;3.33;;;;;;;10.34;100.00;96026.78;5009680;28;105189;-62
2022/09/13 02:45:45;;;;;;;3.70;3.37;;;;;;;10.23;100.00;96017.16;5008897;28;104727;-62
2022/09/13 02:48:21;;;;;;;4.70;3.30;;;;;;;10.20;100.00;96021.13;5013091;28;101898;-62
2022/09/13 02:51:00;;;;;;;3.53;3.30;;;;;;;10.19;100.00;96029.38;5009892;28;102578;-62
2022/09/13 02:53:35;;;;;;;4.40;3.30;;;;;;;10.09;100.00;96030.09;5009427;28;101815;-62
2022/09/13 02:59:25;;;;;;;3.50;3.30;;;;;;;10.11;100.00;96027.19;5008908;28;104976;-62
2022/09/13 03:01:57;;;;;;;3.33;3.13;;;;;;;10.17;100.00;96021.66;5009548;28;102199;-62
2022/09/13 03:04:24;;;;;;;3.30;3.10;;;;;;;10.09;100.00;96024.00;5009504;28;105151;-62
2022/09/13 03:07:11;;;;;;;3.77;3.20;;;;;;;10.08;100.00;96041.00;5008710;28;105920;-62
2022/09/13 03:09:42;;;;;;;3.63;3.33;;;;;;;10.05;100.00;96038.84;5010689;28;101966;-62
2022/09/13 03:12:34;;;;;;;4.30;3.40;;;;;;;9.96;100.00;96035.00;5012017;28;103908;-62
2022/09/13 03:15:10;;;;;;;3.60;3.40;;;;;;;10.06;100.00;96032.47;5009159;28;101791;-62
2022/09/13 03:18:04;;;;;;;3.80;3.47;;;;;;;10.11;100.00;96037.81;5010868;28;102316;-62
2022/09/13 03:20:41;;;;;;;3.93;3.63;;;;;;;10.07;100.00;96042.03;5009922;28;102878;-62
2022/09/13 03:23:42;;;;;;;3.53;3.23;;;;;;;9.98;100.00;96054.97;5010650;28;101667;-62
2022/09/13 03:26:32;;;;;;;3.60;3.30;;;;;;;10.02;100.00;96042.78;5009212;28;105289;-62
2022/09/13 03:29:13;;;;;;;3.20;3.00;;;;;;;10.05;100.00;96041.50;5009886;28;102803;-62
2022/09/13 03:31:50;;;;;;;3.53;3.23;;;;;;;10.02;100.00;96047.28;5013001;28;101801;-62
2022/09/13 03:34:24;;;;;;;3.80;3.00;;;;;;;10.06;100.00;96040.44;5017059;28;102360;-62
2022/09/13 03:40:21;;;;;;;3.80;3.50;;;;;;;9.95;100.00;96046.69;5012615;28;105521;-62
2022/09/13 03:42:53;;;;;;;7.13;3.83;;;;;;;9.98;100.00;96054.19;5013349;28;102708;-62
2022/09/13 03:45:27;;;;;;;3.83;3.37;;;;;;;9.88;100.00;96046.13;5012560;28;101809;-62
2022/09/13 03:47:56;;;;;;;5.43;3.70;;;;;;;9.84;100.00;96037.06;5012599;28;104003;-62
2022/09/13 03:50:25;;;;;;;4.03;3.63;;;;;;;9.67;100.00;96034.53;5012900;28;102595;-62
2022/09/13 03:52:57;;;;;;;4.00;3.60;;;;;;;9.74;100.00;96045.75;5012344;28;101759;-62
2022/09/13 03:55:27;;;;;;;3.97;3.67;;;;;;;9.79;100.00;96039.66;5012439;28;105346;-62
2022/09/13 03:57:54;;;;;;;4.60;3.90;;;;;;;9.69;100.00;96044.88;5014961;28;105829;-62
2022/09/13 04:00:21;;;;;;;4.27;3.90;;;;;;;9.75;100.00;96043.91;5013537;28;102828;-62
2022/09/13 04:02:48;;;;;;;4.33;3.90;;;;;;;9.72;100.00;96045.22;5013033;28;102657;-62
2022/09/13 04:05:15;;;;;;;4.47;3.90;;;;;;;9.74;100.00;96051.06;5013580;28;101809;-62
2022/09/13 04:07:42;;;;;;;3.97;3.63;;;;;;;9.70;100.00;96041.19;5013670;28;102336;-62
2022/09/13 04:10:10;;;;;;;3.97;3.67;;;;;;;9.70;100.00;96052.59;5013018;28;101874;-62
2022/09/13 04:12:40;;;;;;;7.00;4.10;;;;;;;9.78;100.00;96046.84;5013034;28;101939;-62
2022/09/13 04:15:09;;;;;;;4.20;3.90;;;;;;;9.68;100.00;96043.28;5013288;28;102400;-62
2022/09/13 04:17:36;;;;;;;4.93;4.00;;;;;;;9.64;100.00;96036.88;5012686;28;102616;-62
2022/09/13 04:20:31;;;;;;;5.17;4.70;;;;;;;9.67;100.00;96034.53;5015473;28;101850;-62
2022/09/13 04:22:58;;;;;;;6.57;5.37;;;;;;;9.69;100.00;96044.88;4994395;28;106625;-62
2022/09/13 04:28:48;;;;;;;5.63;5.13;;;;;;;9.67;100.00;96057.63;5011873;28;105637;-62
2022/09/13 04:31:16;;;;;;;5.83;5.37;;;;;;;9.70;100.00;96054.47;5011126;28;105858;-62
2022/09/13 04:33:43;;;;;;;6.20;5.10;;;;;;;9.78;100.00;96056.66;5013182;28;101899;-62
2022/09/13 04:36:25;;;;;;;6.33;5.73;;;;;;;9.81;100.00;96067.56;5011587;28;105258;-62
2022/09/13 04:38:52;;;;;;;5.70;5.20;;;;;;;9.86;100.00;96067.63;5012707;28;102511;-62
2022/09/13 04:41:19;;;;;;;6.27;5.10;;;;;;;9.88;100.00;96059.41;5011438;28;102025;-62
2022/09/13 04:43:50;;;;;;;5.90;5.33;;;;;;;9.93;100.00;96062.88;5015587;28;102366;-62
2022/09/13 04:46:37;;;;;;;5.83;5.30;;;;;;;9.94;100.00;96061.03;5028465;28;101851;-62
2022/09/13 04:49:04;;;;;;;5.50;4.93;;;;;;;9.87;100.00;96053.28;5010923;28;105223;-62
2022/09/13 04:51:31;;;;;;;5.23;4.73;;;;;;;9.91;100.00;96050.91;5010735;28;103724;-62
2022/09/13 04:53:59;;;;;;;6.77;4.80;;;;;;;9.94;100.00;96053.06;5011433;28;101906;-62
2022/09/13 04:56:50;;;;;;;6.53;5.90;;;;;;;9.87;100.00;96055.16;5011296;28;104761;-62
2022/09/13 04:59:19;;;;;;;5.70;5.03;;;;;;;9.70;100.00;96049.16;5010799;28;105505;-62
2022/09/13 05:01:45;;;;;;;5.63;5.13;;;;;;;9.78;100.00;96056.66;5012551;28;101985;-62
2022/09/13 05:04:13;;;;;;;5.37;4.87;;;;;;;9.79;100.00;96055.59;5011363;28;104855;-62
2022/09/13 05:06:52;;;;;;;4.50;4.20;;;;;;;9.80;100.00;96062.50;5013833;28;105184;-62
2022/09/13 05:09:19;;;;;;;4.20;3.80;;;;;;;9.90;100.00;96062.59;5012592;28;102344;-62
2022/09/13 05:11:47;;;;;;;4.73;4.33;;;;;;;9.90;100.00;96067.91;5010242;28;106006;-62
2022/09/13 05:14:14;;;;;;;4.70;4.30;;;;;;;9.91;100.00;96074.81;5010966;28;101890;-62
2022/09/13 05:17:01;;;;;;;4.30;3.90;;;;;;;10.03;100.00;96072.81;5011072;28;105430;-62
2022/09/13 05:19:28;;;;;;;4.27;3.90;;;;;;;10.08;100.00;96072.88;5010464;28;103994;-61
2022/09/13 05:21:55;;;;;;;5.60;4.40;;;;;;;10.27;100.00;96079.38;5012236;28;101727;-61
2022/09/13 05:24:22;;;;;;;5.07;4.67;;;;;;;10.37;100.00;96080.22;5012269;28;102301;-61
2022/09/13 05:26:58;;;;;;;5.13;4.33;;;;;;;10.50;100.00;96069.16;5011597;28;103262;-61
2022/09/13 05:29:26;;;;;;;6.03;4.70;;;;;;;10.50;100.00;96073.69;5014346;28;101779;-61
2022/09/13 05:31:52;;;;;;;4.90;4.50;;;;;;;10.69;100.00;96078.31;5011720;28;102667;-61
2022/09/13 05:34:21;;;;;;;4.50;4.10;;;;;;;10.81;100.00;96076.25;5010949;28;101922;-61
2022/09/13 05:36:50;;;;;;;5.23;4.40;;;;;;;10.94;100.00;96074.97;5010697;28;103968;-61
2022/09/13 05:39:18;;;;;;;5.20;4.70;;;;;;;11.09;100.00;96072.38;5009810;28;105171;-61
2022/09/13 05:41:46;;;;;;;7.07;5.10;;;;;;;11.14;100.00;96081.19;5010607;28;103156;-61
2022/09/13 05:44:12;;;;;;;5.27;4.57;;;;;;;11.34;100.00;96075.91;5010570;28;105257;-61
2022/09/13 05:46:42;;;;;;;5.40;4.90;;;;;;;11.48;100.00;96077.00;5010121;28;105340;-61
2022/09/13 05:49:11;;;;;;;5.93;5.20;;;;;;;11.62;100.00;96069.34;5013621;28;101929;-61
2022/09/13 05:51:40;;;;;;;5.43;4.93;;;;;;;11.72;100.00;96064.81;5009810;28;105813;-61
2022/09/13 05:54:07;;;;;;;6.47;5.20;;;;;;;11.76;100.00;96054.44;5011129;28;101823;-61
2022/09/13 05:56:56;;;;;;;6.57;5.70;;;;;;;11.89;100.00;96064.59;5010469;28;103604;-61
2022/09/13 05:59:23;;;;;;;6.67;5.97;;;;;;;12.01;100.00;96067.78;5010954;28;104323;-61
2022/09/13 06:01:50;;;;;;;6.53;5.87;;;;;;;12.15;100.00;96074.97;5011540;28;101834;-61
2022/09/13 06:04:17;;;;;;;7.70;6.90;;;;;;;12.27;100.00;96075.47;5010477;28;106580;-61
2022/09/13 06:06:47;;;;;;;6.97;6.37;;;;;;;12.54;100.00;96083.19;5011090;28;102800;-61
2022/09/13 06:09:14;;;;;;;9.60;7.17;;;;;;;12.55;100.00;96082.94;5011701;28;101702;-61
2022/09/13 06:11:41;;;;;;;12.47;7.60;;;;;;;12.68;100.00;96078.88;5014037;28;102423;-61
2022/09/13 06:14:08;;;;;;;8.37;7.30;;;;;;;12.78;100.00;96074.34;5011527;28;101820;-61
2022/09/13 06:16:40;;;;;;;8.40;7.50;;;;;;;12.88;100.00;96076.16;5011512;28;101893;-61
2022/09/13 06:19:31;;;;;;;9.27;8.40;;;;;;;12.99;100.00;96069.75;5009715;28;105402;-61
2022/09/13 06:22:00;;;;;;;8.40;7.60;;;;;;;13.10;100.00;96064.13;5011500;28;101686;-61
2022/09/13 06:24:27;;;;;;;9.30;8.27;;;;;;;13.17;100.00;96063.81;5009877;28;105138;-61
2022/09/13 06:26:54;;;;;;;9.23;8.00;;;;;;;13.20;100.00;96066.72;5010642;28;102653;-61
2022/09/13 06:29:21;;;;;;;7.73;7.03;;;;;;;13.39;100.00;96066.91;5011430;28;101737;-62
2022/09/13 06:31:48;;;;;;;7.63;6.83;;;;;;;13.55;100.00;96063.88;5011339;28;102848;-63
2022/09/13 06:34:16;;;;;;;6.83;6.23;;;;;;;13.73;100.00;96070.47;5013981;28;102583;-63
2022/09/13 06:37:00;;;;;;;7.70;7.00;;;;;;;13.83;100.00;96065.00;5010817;28;102883;-63
2022/09/13 06:39:27;;;;;;;7.47;6.77;;;;;;;13.99;100.00;96061.97;5010738;28;103540;-63
2022/09/13 06:41:54;;;;;;;6.70;6.10;;;;;;;14.15;100.00;96049.25;5009659;28;102017;-63
2022/09/13 06:44:32;;;;;;;8.33;7.53;;;;;;;14.34;100.00;96058.22;5010012;28;105200;-63
2022/09/13 06:47:03;;;;;;;7.37;6.67;;;;;;;14.46;100.00;96062.13;5009064;28;105759;-63
2022/09/13 06:49:30;;;;;;;7.80;7.10;;;;;;;14.54;100.00;96058.84;5010533;28;101912;-63
2022/09/13 06:51:57;;;;;;;7.40;6.77;;;;;;;14.60;100.00;96040.88;5010812;28;102798;-63
2022/09/13 06:54:26;;;;;;;7.87;6.70;;;;;;;14.89;100.00;96045.06;5010366;28;102631;-63
2022/09/13 06:57:34;;;;;;;8.07;7.27;;;;;;;14.84;100.00;96049.69;5014377;28;101845;-63
2022/09/13 07:00:02;;;;;;;8.03;6.93;;;;;;;14.94;100.00;96052.25;5008762;28;105690;-63
2022/09/13 07:02:28;;;;;;;8.10;6.67;;;;;;;15.20;100.00;96056.22;5009481;28;101991;-63
2022/09/13 07:04:56;;;;;;;8.40;7.20;;;;;;;15.24;100.00;96059.91;5008488;28;105047;-63
2022/09/13 07:07:22;;;;;;;6.90;6.30;;;;;;;15.27;100.00;96052.09;5009934;28;102563;-63
2022/09/13 07:09:51;;;;;;;6.03;5.43;;;;;;;15.36;100.00;96042.38;5010819;28;101850;-63
2022/09/13 07:12:18;;;;;;;7.30;5.10;;;;;;;15.63;100.00;96039.84;5009092;28;105448;-63
2022/09/13 07:14:45;;;;;;;5.30;4.80;;;;;;;15.94;100.00;96024.09;5009925;28;103120;-63
2022/09/13 07:17:15;;;;;;;5.47;4.93;;;;;;;16.13;100.00;96033.69;5009267;28;101936;-63
2022/09/13 07:19:42;;;;;;;4.70;4.30;;;;;;;16.34;100.00;96034.16;5012200;28;105227;-63
2022/09/13 07:22:09;;;;;;;5.03;4.50;;;;;;;16.39;100.00;96042.94;5009086;28;101852;-63
2022/09/13 07:24:36;;;;;;;3.30;2.93;;;;;;;16.43;100.00;96037.78;5010748;28;102666;-63
2022/09/13 07:27:09;;;;;;;4.23;2.80;;;;;;;16.45;100.00;96046.34;5008488;28;105659;-63
2022/09/13 07:29:36;;;;;;;4.83;2.80;;;;;;;16.71;100.00;96039.41;5009058;28;101857;-62
2022/09/13 07:32:04;;;;;;;3.33;2.70;;;;;;;16.81;100.00;96036.53;5010469;28;101951;-63
2022/09/13 07:34:31;;;;;;;3.50;2.60;;;;;;;17.00;100.00;96037.25;5009793;28;102659;-63
2022/09/13 07:40:20;;;;;;;2.70;2.50;;;;;;;17.44;100.00;96029.38;5010588;28;102728;-63
2022/09/13 07:42:49;;;;;;;2.50;2.30;;;;;;;17.45;100.00;96030.97;5011358;28;101891;-63
2022/09/13 07:45:16;;;;;;;2.87;2.20;;;;;;;17.41;100.00;96032.66;5010354;28;102227;-63
2022/09/13 07:47:43;;;;;;;4.57;2.43;;;;;;;17.21;100.00;96033.84;5009740;28;102554;-63
2022/09/13 07:50:10;;;;;;;2.97;2.30;;;;;;;17.11;100.00;96034.06;5008210;28;102035;-63
2022/09/13 07:52:37;;;;;;;2.23;2.03;;;;;;;17.36;100.00;96027.38;5008730;28;105177;-63
2022/09/13 07:55:05;;;;;;;2.27;1.77;;;;;;;17.55;100.00;96026.16;5008068;28;104733;-63
2022/09/13 07:57:38;;;;;;;1.90;1.80;;;;;;;17.81;100.00;96032.56;5010072;28;101964;-63
2022/09/13 08:00:09;;;;;;;2.50;2.00;;;;;;;18.22;100.00;96035.91;5010471;28;102333;-63
2022/09/13 08:02:38;;;;;;;2.23;2.00;;;;;;;18.51;100.00;96041.66;5009809;28;102354;-63
2022/09/13 08:05:06;;;;;;;2.87;1.93;;;;;;;18.77;100.00;96049.84;5008574;28;105346;-63
2022/09/13 08:10:55;;;;;;;1.83;1.73;;;;;;;19.25;100.00;96042.63;5010164;28;101801;-63
2022/09/13 08:13:23;;;;;;;1.77;1.67;;;;;;;19.40;100.00;96036.81;5009946;28;102314;-63
2022/09/13 08:15:57;;;;;;;2.23;1.70;;;;;;;19.57;100.00;96034.13;5009451;28;102710;-63
2022/09/13 08:18:24;;;;;;;1.77;1.67;;;;;;;19.49;100.00;96029.50;5013076;28;101764;-63
2022/09/13 08:20:51;;;;;;;2.17;1.40;;;;;;;19.39;100.00;96036.00;5013383;28;101885;-61
2022/09/13 08:23:18;;;;;;;2.73;1.43;;;;;;;19.32;100.00;96024.09;5011289;28;105267;-60
2022/09/13 08:25:45;;;;;;;2.97;1.30;;;;;;;19.57;100.00;96017.94;5016867;28;101829;-60
2022/09/13 08:28:16;;;;;;;1.30;1.20;;;;;;;19.89;100.00;96020.97;5012664;28;102649;-60
2022/09/13 08:30:43;;;;;;;2.30;1.20;;;;;;;20.21;100.00;96031.31;5011718;28;101822;-60
2022/09/13 08:33:12;;;;;;;1.40;1.30;;;;;;;20.62;100.00;96022.66;5011782;28;105488;-60
2022/09/13 08:39:05;;;;;;;1.53;1.30;;;;;;;20.42;100.00;96034.13;5011924;28;101849;-60
2022/09/13 08:41:56;;;;;;;2.90;1.30;;;;;;;20.77;100.00;96035.66;5012955;28;102866;-60
2022/09/13 08:44:28;;;;;;;2.73;1.30;;;;;;;20.77;100.00;96041.06;5003034;28;103782;-60
2022/09/13 08:47:03;;;;;;;1.70;1.20;;;;;;;20.93;100.00;96039.44;5013111;28;101755;-60
2022/09/13 08:49:36;;;;;;;1.87;1.17;;;;;;;21.23;100.00;96032.94;5014070;28;105623;-63
2022/09/13 08:52:17;;;;;;;1.20;1.10;;;;;;;21.41;100.00;96032.53;5012940;28;101986;-63
2022/09/13 08:54:44;;;;;;;1.00;1.00;;;;;;;21.39;100.00;96033.97;5011406;28;105831;-63
2022/09/13 08:57:36;;;;;;;2.00;1.10;;;;;;;21.55;100.00;96041.22;5010998;28;104222;-61
2022/09/13 09:00:18;;;;;;;2.40;0.90;;;;;;;21.51;100.00;96048.41;5012986;28;101905;-61
2022/09/13 09:02:58;;;;;;;2.00;1.20;;;;;;;21.86;100.00;96030.81;5012806;28;102536;-63
2022/09/13 09:05:29;;;;;;;4.43;1.40;;;;;;;22.07;100.00;96028.91;5012156;28;102699;-63
2022/09/13 09:08:00;;;;;;;1.73;1.07;;;;;;;21.92;100.00;96026.00;5012625;28;101755;-63
2022/09/13 09:10:31;;;;;;;2.57;1.07;;;;;;;22.12;100.00;96015.16;5013060;28;102251;-63
2022/09/13 09:13:02;;;;;;;1.20;0.93;;;;;;;22.50;100.00;96004.19;5015423;28;102524;-63
2022/09/13 09:15:58;;;;;;;3.67;1.20;;;;;;;22.87;100.00;96013.94;5012282;28;103914;-63
2022/09/13 09:18:31;;;;;;;1.60;1.20;;;;;;;22.91;100.00;96015.66;5011879;28;102712;-63
2022/09/13 09:21:20;;;;;;;0.93;0.90;;;;;;;22.99;100.00;96011.28;5012610;28;101888;-63
2022/09/13 09:23:50;;;;;;;1.90;1.17;;;;;;;23.17;100.00;96009.91;5012544;28;102544;-63
2022/09/13 09:26:21;;;;;;;4.30;1.30;;;;;;;23.16;100.00;96000.19;5011769;28;102782;-63
2022/09/13 09:28:51;;;;;;;2.33;1.03;;;;;;;23.29;100.00;95993.66;5011513;28;102157;-63
2022/09/13 09:31:29;;;;;;;2.60;1.10;;;;;;;23.08;100.00;95993.75;5012135;28;103602;-63
2022/09/13 09:34:08;;;;;;;0.90;0.90;;;;;;;23.23;100.00;96003.97;5010418;28;105390;-63
2022/09/13 09:36:49;;;;;;;0.77;0.70;;;;;;;23.58;100.00;95996.91;5014115;28;101864;-61
2022/09/13 09:39:16;;;;;;;0.90;0.90;;;;;;;23.53;100.00;95982.75;5011687;28;102559;-61
2022/09/13 09:41:44;;;;;;;1.13;1.00;;;;;;;23.85;100.00;95989.94;5012054;28;101863;-61
2022/09/13 09:44:19;;;;;;;0.97;0.97;;;;;;;23.75;100.00;95987.72;5011916;28;102984;-63
2022/09/13 09:46:52;;;;;;;1.00;1.00;;;;;;;23.77;100.00;95982.72;5011203;28;104149;-63
2022/09/13 09:52:15;;;;;;;0.90;0.80;;;;;;;24.37;100.00;95986.06;4980125;28;103826;-63
2022/09/13 09:54:42;;;;;;;0.97;0.97;;;;;;;24.57;100.00;95982.31;5011413;28;102690;-63
2022/09/13 09:58:00;;;;;;;1.03;0.77;;;;;;;24.61;100.00;95974.28;5013923;28;102006;-63
2022/09/13 10:00:31;;;;;;;1.37;0.90;;;;;;;24.52;100.00;95968.97;5009832;28;106478;-63
2022/09/13 10:03:01;;;;;;;1.00;1.00;;;;;;;24.80;100.00;95972.44;5010413;28;102136;-63
2022/09/13 10:05:32;;;;;;;1.27;0.80;;;;;;;24.86;100.00;95970.28;5011775;28;102286;-63
2022/09/13 10:08:04;;;;;;;2.93;0.80;;;;;;;24.42;93.10;95971.41;5009792;28;105238;-63
2022/09/13 10:10:37;;;;;;;1.33;0.67;;;;;;;24.75;99.16;95969.22;5011957;28;101666;-63
2022/09/13 10:13:07;;;;;;;1.80;0.80;;;;;;;25.35;96.13;95974.22;5011507;28;102310;-63
2022/09/13 10:15:54;;;;;;;0.73;0.73;;;;;;;25.87;95.29;95971.88;5011152;28;103108;-63
2022/09/13 10:18:23;;;;;;;1.17;0.67;;;;;;;26.01;87.10;95977.66;5011530;28;101721;-61
2022/09/13 10:21:22;;;;;;;1.23;0.70;;;;;;;25.53;85.69;95964.50;5014137;28;102330;-63
2022/09/13 10:23:52;;;;;;;1.63;0.60;;;;;;;25.99;83.68;95958.16;5011272;28;101848;-63
2022/09/13 10:26:27;;;;;;;1.37;0.70;;;;;;;26.23;85.39;95960.56;5009964;28;105410;-63
2022/09/13 10:29:00;;;;;;;0.60;0.60;;;;;;;26.11;71.49;95956.06;5009455;28;105600;-63
2022/09/13 10:31:31;;;;;;;0.90;0.60;;;;;;;25.92;54.94;95956.06;5011437;28;101692;-63
2022/09/13 10:34:01;;;;;;;0.60;0.60;;;;;;;26.02;51.10;95951.97;5011436;28;102407;-63
2022/09/13 10:36:51;;;;;;;1.10;0.63;;;;;;;26.19;55.22;95956.97;5009124;28;105391;-63
2022/09/13 10:39:21;;;;;;;1.03;0.50;;;;;;;26.05;54.47;95945.81;5026668;28;101838;-63
2022/09/13 10:41:54;;;;;;;0.77;0.60;;;;;;;25.58;53.34;95942.44;5009850;28;104969;-60
2022/09/13 10:44:27;;;;;;;1.40;0.70;;;;;;;26.02;65.12;95941.88;5014145;28;102568;-63
2022/09/13 10:50:54;;;;;;;1.17;0.63;;;;;;;27.01;67.85;95942.53;5008356;28;105817;-63
2022/09/13 10:53:33;;;;;;;0.80;0.70;;;;;;;26.76;63.98;95940.56;5011064;28;101650;-63
2022/09/13 10:56:44;;;;;;;0.97;0.67;;;;;;;27.10;51.32;95931.38;5011140;28;102476;-63
2022/09/13 10:59:20;;;;;;;1.33;0.70;;;;;;;26.33;56.89;95927.28;5010332;28;103032;-63
2022/09/13 11:02:06;;;;;;;0.90;0.60;;;;;;;26.02;58.38;95930.97;5011022;28;101711;-63
2022/09/13 11:05:05;;;;;;;1.00;0.60;;;;;;;26.78;61.77;95930.06;5010991;28;102299;-63
2022/09/13 11:08:15;;;;;;;1.93;0.70;;;;;;;26.60;68.33;95932.47;5010365;28;102774;-63
2022/09/13 11:10:54;;;;;;;0.53;0.53;;;;;;;26.77;57.22;95929.28;5018970;28;102061;-63
2022/09/13 11:13:29;;;;;;;1.60;0.80;;;;;;;26.80;57.00;95934.00;5009929;28;102783;-63
2022/09/13 11:16:29;;;;;;;1.93;0.63;;;;;;;27.29;60.40;95923.91;5010534;28;101949;-63
2022/09/13 11:19:22;;;;;;;1.13;0.63;;;;;;;26.73;60.82;95930.38;5010851;28;102332;-63
2022/09/13 11:22:05;;;;;;;1.40;0.50;;;;;;;27.58;69.08;95919.63;5009815;28;102675;-63
2022/09/13 11:24:48;;;;;;;1.43;0.60;;;;;;;27.82;62.62;95913.72;5011026;28;103011;-63
2022/09/13 11:27:39;;;;;;;0.83;0.50;;;;;;;27.80;59.50;95913.31;5009196;28;105147;-64
2022/09/13 11:30:16;;;;;;;0.60;0.60;;;;;;;27.14;53.82;95911.16;5008611;28;104336;-64
2022/09/13 11:32:58;;;;;;;1.17;0.60;;;;;;;27.35;53.54;95914.25;5017718;28;101788;-63
2022/09/13 11:35:54;;;;;;;0.70;0.70;;;;;;;27.31;48.96;95916.13;5011683;28;105323;-64
2022/09/13 11:38:34;;;;;;;2.17;0.73;;;;;;;26.89;50.14;95906.47;5020275;28;101924;-63
2022/09/13 11:41:14;;;;;;;0.90;0.70;;;;;;;26.66;53.01;95909.22;5030255;28;103228;-63
2022/09/13 11:43:55;;;;;;;0.53;0.53;;;;;;;26.95;55.28;95897.63;5010411;27;103240;-63
2022/09/13 11:46:31;;;;;;;2.20;0.67;;;;;;;27.58;51.61;95908.72;5008920;28;102076;-63
2022/09/13 11:49:28;;;;;;;0.70;0.70;;;;;;;27.91;56.18;95903.31;5008603;28;105129;-64
2022/09/13 11:52:07;;;;;;;0.70;0.70;;;;;;;28.25;50.04;95896.66;5009324;28;105961;-64
2022/09/13 11:54:59;;;;;;;0.70;0.60;;;;;;;28.31;46.30;95893.22;5013946;28;101937;-63
2022/09/13 11:58:03;;;;;;;0.70;0.70;;;;;;;28.38;54.78;95895.28;5012419;28;105323;-64
2022/09/13 12:00:35;;;;;;;2.33;0.50;;;;;;;29.25;51.76;95892.53;5016755;28;101815;-64
2022/09/13 12:03:12;;;;;;;0.70;0.60;;;;;;;28.72;43.27;95889.34;5013659;28;102281;-64
2022/09/13 12:05:48;;;;;;;0.60;0.50;;;;;;;28.99;43.83;95884.53;5011627;28;105475;-64
2022/09/13 12:08:19;;;;;;;1.00;0.50;;;;;;;28.99;43.94;95888.03;5012093;28;101865;-64
2022/09/13 12:10:51;;;;;;;0.50;0.50;;;;;;;29.16;42.61;95883.88;5013524;28;102881;-64
2022/09/13 12:13:22;;;;;;;1.95;0.68;;;;;;;29.26;45.37;95883.16;5011182;28;105845;-64
2022/09/13 12:15:56;;;;;;;1.80;0.60;;;;;;;28.35;44.38;95882.31;5011810;28;101891;-64
2022/09/13 12:18:28;;;;;;;0.60;0.60;;;;;;;28.54;46.66;95871.19;5024327;28;102423;-64
2022/09/13 12:24:22;;;;;;;0.63;0.45;;;;;;;28.58;44.88;95870.06;5011843;28;105544;-63
2022/09/13 12:27:07;;;;;;;1.08;0.68;;;;;;;28.66;44.69;95870.94;5012717;28;102443;-63
2022/09/13 12:29:40;;;;;;;2.20;0.50;;;;;;;28.52;47.30;95863.38;5013324;28;101854;-63